sensor_id;sensor_type;location;lat;lon;timestamp;temperature;humidity
25688;DHT22;17407;51.120;3.702;2023-02-01T00:01:42;7.40;99.90
25688;DHT22;17407;51.120;3.702;2023-02-01T00:04:07;7.30;99.90
25688;DHT22;17407;51.120;3.702;2023-02-01T00:06:33;7.20;99.90
25688;DHT22;17407;51.120;3.702;2023-02-01T00:08:59;7.20;99.90
25688;DHT22;17407;51.120;3.702;2023-02-01T00:11:24;7.30;99.90
25688;DHT22;17407;51.120;3.702;2023-02-01T00:13:50;7.40;99.90
25688;DHT22;17407;51.120;3.702;2023-02-01T00:16:19;7.40;99.90
25688;DHT22;17407;51.120;3.702;2023-02-01T00:18:49;7.50;99.90
25688;DHT22;17407;51.120;3.702;2023-02-01T00:21:17;7.50;99.90
25688;DHT22;17407;51.120;3.702;2023-02-01T00:23:43;7.40;99.90
25688;DHT22;17407;51.120;3.702;2023-02-01T00:26:31;7.50;99.90
25688;DHT22;17407;51.120;3.702;2023-02-01T00:28:56;7.50;99.90
25688;DHT22;17407;51.120;3.702;2023-02-01T00:31:22;7.40;99.90
25688;DHT22;17407;51.120;3.702;2023-02-01T00:33:48;7.30;99.90
25688;DHT22;17407;51.120;3.702;2023-02-01T00:36:15;7.30;99.90
25688;DHT22;17407;51.120;3.702;2023-02-01T00:38:40;7.20;99.90
25688;DHT22;17407;51.120;3.702;2023-02-01T00:41:10;7.10;99.90
25688;DHT22;17407;51.120;3.702;2023-02-01T00:43:36;7.40;99.90
25688;DHT22;17407;51.120;3.702;2023-02-01T00:46:02;7.30;99.90
25688;DHT22;17407;51.120;3.702;2023-02-01T00:48:28;7.10;99.90
25688;DHT22;17407;51.120;3.702;2023-02-01T00:50:54;7.10;99.90
25688;DHT22;17407;51.120;3.702;2023-02-01T00:53:20;6.90;99.90
25688;DHT22;17407;51.120;3.702;2023-02-01T00:55:46;7.00;99.90
25688;DHT22;17407;51.120;3.702;2023-02-01T00:58:12;6.90;99.90
25688;DHT22;17407;51.120;3.702;2023-02-01T01:00:38;6.70;99.90
25688;DHT22;17407;51.120;3.702;2023-02-01T01:03:04;6.70;99.90
25688;DHT22;17407;51.120;3.702;2023-02-01T01:05:44;6.70;99.90
25688;DHT22;17407;51.120;3.702;2023-02-01T01:08:10;6.60;99.90
25688;DHT22;17407;51.120;3.702;2023-02-01T01:10:36;6.60;99.90
25688;DHT22;17407;51.120;3.702;2023-02-01T01:13:01;6.70;99.90
25688;DHT22;17407;51.120;3.702;2023-02-01T01:15:27;6.70;99.90
25688;DHT22;17407;51.120;3.702;2023-02-01T01:17:52;6.60;99.90
25688;DHT22;17407;51.120;3.702;2023-02-01T01:20:18;6.40;99.90
25688;DHT22;17407;51.120;3.702;2023-02-01T01:22:47;6.50;99.90
25688;DHT22;17407;51.120;3.702;2023-02-01T01:25:13;6.40;99.90
25688;DHT22;17407;51.120;3.702;2023-02-01T01:27:39;6.50;99.90
25688;DHT22;17407;51.120;3.702;2023-02-01T01:30:05;6.40;99.90
25688;DHT22;17407;51.120;3.702;2023-02-01T01:32:31;6.50;99.90
25688;DHT22;17407;51.120;3.702;2023-02-01T01:34:57;6.50;99.90
25688;DHT22;17407;51.120;3.702;2023-02-01T01:37:22;6.50;99.90
25688;DHT22;17407;51.120;3.702;2023-02-01T01:39:48;6.60;99.90
25688;DHT22;17407;51.120;3.702;2023-02-01T01:42:14;6.70;99.90
25688;DHT22;17407;51.120;3.702;2023-02-01T01:45:03;6.70;99.90
25688;DHT22;17407;51.120;3.702;2023-02-01T01:47:37;6.60;99.90
25688;DHT22;17407;51.120;3.702;2023-02-01T01:50:07;6.60;99.90
25688;DHT22;17407;51.120;3.702;2023-02-01T01:52:34;6.60;99.90
25688;DHT22;17407;51.120;3.702;2023-02-01T01:55:00;6.60;99.90
25688;DHT22;17407;51.120;3.702;2023-02-01T01:57:31;6.60;99.90
25688;DHT22;17407;51.120;3.702;2023-02-01T02:00:09;6.70;99.90
25688;DHT22;17407;51.120;3.702;2023-02-01T02:02:37;6.80;99.90
25688;DHT22;17407;51.120;3.702;2023-02-01T02:05:04;6.70;99.90
25688;DHT22;17407;51.120;3.702;2023-02-01T02:07:34;6.60;99.90
25688;DHT22;17407;51.120;3.702;2023-02-01T02:10:03;6.60;99.90
25688;DHT22;17407;51.120;3.702;2023-02-01T02:12:31;6.60;99.90
25688;DHT22;17407;51.120;3.702;2023-02-01T02:14:58;6.60;99.90
25688;DHT22;17407;51.120;3.702;2023-02-01T02:17:40;6.60;99.90
25688;DHT22;17407;51.120;3.702;2023-02-01T02:23:22;6.70;99.90
25688;DHT22;17407;51.120;3.702;2023-02-01T02:43:21;6.30;99.90
25688;DHT22;17407;51.120;3.702;2023-02-01T02:46:21;6.30;99.90
25688;DHT22;17407;51.120;3.702;2023-02-01T02:49:42;6.20;99.90
25688;DHT22;17407;51.120;3.702;2023-02-01T02:52:31;6.30;99.90
25688;DHT22;17407;51.120;3.702;2023-02-01T02:55:17;6.40;99.90
25688;DHT22;17407;51.120;3.702;2023-02-01T02:57:43;6.50;99.90
25688;DHT22;17407;51.120;3.702;2023-02-01T03:00:30;6.50;99.90
25688;DHT22;17407;51.120;3.702;2023-02-01T03:03:16;6.50;99.90
25688;DHT22;17407;51.120;3.702;2023-02-01T03:06:00;6.60;99.90
25688;DHT22;17407;51.120;3.702;2023-02-01T03:08:29;6.70;99.90
25688;DHT22;17407;51.120;3.702;2023-02-01T03:11:05;6.80;99.90
25688;DHT22;17407;51.120;3.702;2023-02-01T03:16:22;6.90;99.90
25688;DHT22;17407;51.120;3.702;2023-02-01T03:18:59;6.90;99.90
25688;DHT22;17407;51.120;3.702;2023-02-01T03:24:21;6.80;99.90
25688;DHT22;17407;51.120;3.702;2023-02-01T03:26:55;6.70;99.90
25688;DHT22;17407;51.120;3.702;2023-02-01T03:29:27;6.60;99.90
25688;DHT22;17407;51.120;3.702;2023-02-01T03:31:55;6.70;99.90
25688;DHT22;17407;51.120;3.702;2023-02-01T03:34:21;6.60;99.90
25688;DHT22;17407;51.120;3.702;2023-02-01T03:36:59;6.60;99.90
25688;DHT22;17407;51.120;3.702;2023-02-01T03:39:32;6.60;99.90
25688;DHT22;17407;51.120;3.702;2023-02-01T03:42:04;6.70;99.90
25688;DHT22;17407;51.120;3.702;2023-02-01T03:44:53;6.60;99.90
25688;DHT22;17407;51.120;3.702;2023-02-01T03:47:23;6.60;99.90
25688;DHT22;17407;51.120;3.702;2023-02-01T10:18:08;9.00;99.90
25688;DHT22;17407;51.120;3.702;2023-02-01T11:37:29;9.80;99.90
25688;DHT22;17407;51.120;3.702;2023-02-01T11:50:58;9.90;99.90
25688;DHT22;17407;51.120;3.702;2023-02-01T11:57:58;10.10;99.90
25688;DHT22;17407;51.120;3.702;2023-02-01T12:01:32;10.20;99.90
25688;DHT22;17407;51.120;3.702;2023-02-01T12:04:59;10.30;99.90
25688;DHT22;17407;51.120;3.702;2023-02-01T12:08:32;10.50;99.90
25688;DHT22;17407;51.120;3.702;2023-02-01T12:19:06;10.90;99.90
25688;DHT22;17407;51.120;3.702;2023-02-01T12:33:00;11.40;99.90
25688;DHT22;17407;51.120;3.702;2023-02-01T12:36:24;11.30;99.90
25688;DHT22;17407;51.120;3.702;2023-02-01T13:07:15;12.60;99.90
25688;DHT22;17407;51.120;3.702;2023-02-01T13:31:30;14.40;99.90
25688;DHT22;17407;51.120;3.702;2023-02-01T13:34:57;13.70;99.90
25688;DHT22;17407;51.120;3.702;2023-02-01T13:56:11;11.50;99.90
25688;DHT22;17407;51.120;3.702;2023-02-01T14:03:12;11.10;99.90
25688;DHT22;17407;51.120;3.702;2023-02-01T18:45:35;9.50;99.90
